createdAt,value
2022-09-11T00:01:35.301Z,16.30
2022-09-11T00:04:09.523Z,15.35
2022-09-11T00:06:43.955Z,14.98
2022-09-11T00:09:17.191Z,14.58
2022-09-11T00:11:50.654Z,15.10
2022-09-11T00:14:23.895Z,14.50
2022-09-11T00:16:57.470Z,13.40
2022-09-11T00:19:31.229Z,15.43
2022-09-11T00:22:06.325Z,14.13
2022-09-11T00:24:39.861Z,14.23
2022-09-11T00:27:13.101Z,15.25
2022-09-11T00:29:48.010Z,13.13
2022-09-11T00:32:21.831Z,13.90
2022-09-11T00:34:55.741Z,15.88
2022-09-11T00:37:29.335Z,13.93
2022-09-11T00:40:02.763Z,14.75
2022-09-11T00:42:36.100Z,13.85
2022-09-11T00:45:13.376Z,13.62
2022-09-11T00:47:46.743Z,14.30
2022-09-11T00:50:22.974Z,14.13
2022-09-11T00:52:59.696Z,14.00
2022-09-11T00:55:37.425Z,15.53
2022-09-11T00:58:13.892Z,15.88
2022-09-11T01:00:48.125Z,14.53
2022-09-11T01:03:21.981Z,12.07
2022-09-11T01:05:55.614Z,14.65
2022-09-11T01:08:29.257Z,14.40
2022-09-11T01:11:06.701Z,15.78
2022-09-11T01:13:43.376Z,12.40
2022-09-11T01:16:20.031Z,14.25
2022-09-11T01:18:57.014Z,15.85
2022-09-11T01:22:02.112Z,12.85
2022-09-11T01:24:47.402Z,16.25
2022-09-11T01:30:33.862Z,13.80
2022-09-11T01:33:17.347Z,15.48
2022-09-11T01:35:57.209Z,13.20
2022-09-11T01:38:36.482Z,12.95
2022-09-11T01:41:14.671Z,13.88
2022-09-11T01:43:51.334Z,13.62
2022-09-11T01:46:27.274Z,14.33
2022-09-11T01:49:04.146Z,13.83
2022-09-11T01:51:39.154Z,14.20
2022-09-11T01:54:15.752Z,13.70
2022-09-11T01:56:51.524Z,15.40
2022-09-11T01:59:28.935Z,15.00
2022-09-11T02:02:06.893Z,12.73
2022-09-11T02:04:44.243Z,15.50
2022-09-11T02:07:20.949Z,14.15
2022-09-11T02:09:58.605Z,15.75
2022-09-11T02:12:39.969Z,14.15
2022-09-11T02:15:16.795Z,13.93
2022-09-11T02:17:54.173Z,14.47
2022-09-11T02:20:29.575Z,15.70
2022-09-11T02:23:03.216Z,14.73
2022-09-11T02:25:36.596Z,14.47
2022-09-11T02:28:10.832Z,14.73
2022-09-11T02:30:45.186Z,14.87
2022-09-11T02:33:33.005Z,16.30
2022-09-11T02:36:34.908Z,14.30
2022-09-11T02:39:17.516Z,15.98
2022-09-11T02:41:56.257Z,15.80
2022-09-11T02:44:34.135Z,18.00
2022-09-11T02:47:15.293Z,14.90
2022-09-11T02:49:54.086Z,15.65
2022-09-11T02:52:33.502Z,13.75
2022-09-11T02:55:10.615Z,13.10
2022-09-11T02:57:46.934Z,15.90
2022-09-11T03:00:20.998Z,15.32
2022-09-11T03:02:54.606Z,14.63
2022-09-11T03:05:28.821Z,14.58
2022-09-11T03:08:03.925Z,16.10
2022-09-11T03:10:38.715Z,15.18
2022-09-11T03:13:14.898Z,13.98
2022-09-11T03:15:49.794Z,15.93
2022-09-11T03:18:23.242Z,13.62
2022-09-11T03:20:57.821Z,14.13
2022-09-11T03:23:31.439Z,15.32
2022-09-11T03:26:04.469Z,14.53
2022-09-11T03:28:37.886Z,15.15
2022-09-11T03:31:14.084Z,14.10
2022-09-11T03:33:47.461Z,15.23
2022-09-11T03:36:21.233Z,15.70
2022-09-11T03:38:55.263Z,16.23
2022-09-11T03:41:28.612Z,17.05
2022-09-11T03:44:02.371Z,18.15
2022-09-11T03:46:35.573Z,16.82
2022-09-11T03:49:09.643Z,18.92
2022-09-11T03:51:43.420Z,17.20
2022-09-11T03:54:18.020Z,15.43
2022-09-11T03:56:51.404Z,15.23
2022-09-11T03:59:25.317Z,17.12
2022-09-11T04:01:59.115Z,17.98
2022-09-11T04:04:33.052Z,17.60
2022-09-11T04:07:06.987Z,17.35
2022-09-11T04:09:40.090Z,16.40
2022-09-11T04:12:13.652Z,16.45
2022-09-11T04:14:46.856Z,15.88
2022-09-11T04:17:21.930Z,17.05
2022-09-11T04:19:55.526Z,17.75
2022-09-11T04:22:28.812Z,17.95
2022-09-11T04:25:02.289Z,14.47
2022-09-11T04:27:35.947Z,19.00
2022-09-11T04:30:12.331Z,17.90
2022-09-11T04:32:46.490Z,17.70
2022-09-11T04:35:22.245Z,17.73
2022-09-11T04:37:57.164Z,18.05
2022-09-11T04:40:30.191Z,18.12
2022-09-11T04:43:03.505Z,16.77
2022-09-11T04:45:36.813Z,19.15
2022-09-11T04:48:10.532Z,17.37
2022-09-11T04:50:44.451Z,17.98
2022-09-11T04:53:19.158Z,16.95
2022-09-11T04:55:52.712Z,16.90
2022-09-11T04:58:26.026Z,16.42
2022-09-11T05:00:59.184Z,17.07
2022-09-11T05:03:32.732Z,16.70
2022-09-11T05:06:08.156Z,16.90
2022-09-11T05:08:41.526Z,15.98
2022-09-11T05:11:16.485Z,14.43
2022-09-11T05:13:50.452Z,15.35
2022-09-11T05:16:23.855Z,15.15
2022-09-11T05:18:59.466Z,15.95
2022-09-11T05:21:33.823Z,15.98
2022-09-11T05:24:08.244Z,15.40
2022-09-11T05:26:41.380Z,14.58
2022-09-11T05:29:15.955Z,16.80
2022-09-11T05:31:51.910Z,16.73
2022-09-11T05:34:25.753Z,16.12
2022-09-11T05:36:59.910Z,16.17
2022-09-11T05:39:34.997Z,17.35
2022-09-11T05:42:09.571Z,16.65
2022-09-11T05:44:44.562Z,16.62
2022-09-11T05:47:17.974Z,17.05
2022-09-11T05:49:52.970Z,16.95
2022-09-11T05:52:26.816Z,17.50
2022-09-11T05:55:00.504Z,16.70
2022-09-11T05:57:35.716Z,17.62
2022-09-11T06:00:11.196Z,16.95
2022-09-11T06:02:45.985Z,17.00
2022-09-11T06:05:19.480Z,15.78
2022-09-11T06:07:53.784Z,16.25
2022-09-11T06:10:27.551Z,14.55
2022-09-11T06:13:05.146Z,17.62
2022-09-11T06:15:51.225Z,15.45
2022-09-11T06:18:25.293Z,14.75
2022-09-11T06:21:00.077Z,13.10
2022-09-11T06:23:34.704Z,13.68
2022-09-11T06:26:10.070Z,13.78
2022-09-11T06:28:45.401Z,13.98
2022-09-11T06:31:22.214Z,12.15
2022-09-11T06:36:30.175Z,11.73
2022-09-11T06:39:05.032Z,12.18
2022-09-11T06:41:40.032Z,12.88
2022-09-11T06:44:14.838Z,12.20
2022-09-11T06:46:48.323Z,10.35
2022-09-11T06:49:23.114Z,11.68
2022-09-11T06:52:14.457Z,10.75
2022-09-11T06:54:50.557Z,11.45
2022-09-11T06:57:24.804Z,10.20
2022-09-11T06:59:58.523Z,9.15
2022-09-11T07:02:32.202Z,9.45
2022-09-11T07:05:07.589Z,8.30
2022-09-11T07:07:41.435Z,8.78
2022-09-11T07:10:14.940Z,8.90
2022-09-11T07:12:49.763Z,9.30
2022-09-11T07:15:23.573Z,7.50
2022-09-11T07:17:56.945Z,5.97
2022-09-11T07:20:31.440Z,5.70
2022-09-11T07:23:04.876Z,4.97
2022-09-11T07:25:40.544Z,6.53
2022-09-11T07:28:14.305Z,6.42
2022-09-11T07:30:49.095Z,5.80
2022-09-11T07:33:23.164Z,6.05
2022-09-11T07:35:56.982Z,5.35
2022-09-11T07:38:31.899Z,5.42
2022-09-11T07:41:06.712Z,5.30
2022-09-11T07:43:42.335Z,4.25
2022-09-11T07:46:17.254Z,4.45
2022-09-11T07:48:51.085Z,4.47
2022-09-11T07:51:25.829Z,5.50
2022-09-11T07:54:01.420Z,4.60
2022-09-11T07:56:37.520Z,4.47
2022-09-11T07:59:12.625Z,3.58
2022-09-11T08:01:47.322Z,4.30
2022-09-11T08:04:21.526Z,3.10
2022-09-11T08:06:55.321Z,2.87
2022-09-11T08:09:30.520Z,3.22
2022-09-11T08:12:52.730Z,3.33
2022-09-11T08:15:41.887Z,2.75
2022-09-11T08:18:16.869Z,3.42
2022-09-11T08:20:50.161Z,1.95
2022-09-11T08:23:24.841Z,2.45
2022-09-11T08:26:07.611Z,2.40
2022-09-11T08:28:44.247Z,3.10
2022-09-11T08:31:20.302Z,2.58
2022-09-11T08:33:54.773Z,2.80
2022-09-11T08:36:28.708Z,3.47
2022-09-11T08:39:03.540Z,3.58
2022-09-11T08:41:46.655Z,3.75
2022-09-11T08:44:23.668Z,3.67
2022-09-11T08:47:01.558Z,3.42
2022-09-11T08:49:38.195Z,3.27
2022-09-11T08:52:15.488Z,3.47
2022-09-11T08:54:50.814Z,3.35
2022-09-11T08:57:28.134Z,3.20
2022-09-11T09:00:13.060Z,3.85
2022-09-11T09:03:14.884Z,3.05
2022-09-11T09:05:51.749Z,3.60
2022-09-11T09:08:42.021Z,2.77
2022-09-11T09:11:22.504Z,3.30
2022-09-11T09:14:06.038Z,2.75
2022-09-11T09:16:47.743Z,3.70
2022-09-11T09:19:25.806Z,4.25
2022-09-11T09:22:05.872Z,3.15
2022-09-11T09:24:45.144Z,3.22
2022-09-11T09:27:21.656Z,3.60
2022-09-11T09:29:58.442Z,4.00
2022-09-11T09:32:34.786Z,3.62
2022-09-11T09:35:13.172Z,3.52
2022-09-11T09:37:46.962Z,4.10
2022-09-11T09:40:21.754Z,3.75
2022-09-11T09:43:19.565Z,3.55
2022-09-11T09:46:05.199Z,3.58
2022-09-11T09:48:40.904Z,3.85
2022-09-11T09:51:16.379Z,3.77
2022-09-11T09:53:53.208Z,4.00
2022-09-11T09:56:27.813Z,3.55
2022-09-11T09:59:03.905Z,3.20
2022-09-11T10:01:49.710Z,3.87
2022-09-11T10:04:25.748Z,3.42
2022-09-11T10:07:11.026Z,3.35
2022-09-11T10:09:51.081Z,2.98
2022-09-11T10:12:27.145Z,3.15
2022-09-11T10:15:02.229Z,3.40
2022-09-11T10:17:37.880Z,3.15
2022-09-11T10:20:29.247Z,3.45
2022-09-11T10:23:08.636Z,3.85
2022-09-11T10:25:48.338Z,3.40
2022-09-11T10:28:25.929Z,2.95
2022-09-11T10:31:03.085Z,3.72
2022-09-11T10:33:38.607Z,3.50
2022-09-11T10:36:13.264Z,3.50
2022-09-11T10:38:50.212Z,2.77
2022-09-11T10:41:27.106Z,3.58
2022-09-11T10:44:02.491Z,3.93
2022-09-11T10:46:38.151Z,3.52
2022-09-11T10:49:19.824Z,3.67
2022-09-11T10:52:05.802Z,3.80
2022-09-11T10:54:52.648Z,4.12
2022-09-11T10:57:30.120Z,3.00
2022-09-11T11:00:11.960Z,3.47
2022-09-11T11:02:48.027Z,3.33
2022-09-11T11:05:27.229Z,2.60
2022-09-11T11:08:14.524Z,3.35
2022-09-11T11:10:56.333Z,3.17
2022-09-11T11:13:38.547Z,3.00
2022-09-11T11:16:17.984Z,3.30
2022-09-11T11:19:02.526Z,3.25
2022-09-11T11:21:43.343Z,2.65
2022-09-11T11:24:23.570Z,3.45
2022-09-11T11:27:04.896Z,3.55
2022-09-11T11:30:00.800Z,3.08
2022-09-11T11:32:46.950Z,2.95
2022-09-11T11:35:26.124Z,2.22
2022-09-11T11:38:03.370Z,3.40
2022-09-11T11:40:39.658Z,2.95
2022-09-11T11:43:16.502Z,3.62
2022-09-11T11:45:52.978Z,3.50
2022-09-11T11:48:30.359Z,3.00
2022-09-11T11:51:09.690Z,3.60
2022-09-11T11:53:45.815Z,4.40
2022-09-11T11:56:22.830Z,2.77
2022-09-11T11:59:00.819Z,2.70
2022-09-11T12:01:38.541Z,2.92
2022-09-11T12:06:47.450Z,3.42
2022-09-11T12:09:21.466Z,2.35
2022-09-11T12:11:57.664Z,2.80
2022-09-11T12:14:33.786Z,2.72
2022-09-11T12:17:22.874Z,3.35
2022-09-11T12:20:19.080Z,3.67
2022-09-11T12:22:52.695Z,2.98
2022-09-11T12:26:00.606Z,3.47
2022-09-11T12:28:34.812Z,3.35
2022-09-11T12:31:11.505Z,3.33
2022-09-11T12:33:56.303Z,2.70
2022-09-11T12:36:37.331Z,3.80
2022-09-11T12:39:26.881Z,2.92
2022-09-11T12:42:37.278Z,3.65
2022-09-11T12:45:35.597Z,3.62
2022-09-11T12:48:13.128Z,3.42
2022-09-11T12:50:56.589Z,3.80
2022-09-11T12:53:32.572Z,3.85
2022-09-11T12:56:08.447Z,3.80
2022-09-11T12:58:44.051Z,3.70
2022-09-11T13:01:21.927Z,3.62
2022-09-11T13:03:59.918Z,3.60
2022-09-11T13:06:42.966Z,3.62
2022-09-11T13:09:23.450Z,3.30
2022-09-11T13:11:58.485Z,4.22
2022-09-11T13:14:51.819Z,3.52
2022-09-11T13:17:31.069Z,3.62
2022-09-11T13:20:23.139Z,3.50
2022-09-11T13:22:58.757Z,3.20
2022-09-11T13:25:33.223Z,3.67
2022-09-11T13:28:08.476Z,3.60
2022-09-11T13:30:51.575Z,3.58
2022-09-11T13:33:29.230Z,3.42
2022-09-11T13:36:06.073Z,3.45
2022-09-11T13:38:43.561Z,3.97
2022-09-11T13:41:19.727Z,3.75
2022-09-11T13:43:58.255Z,3.65
2022-09-11T13:46:33.912Z,4.15
2022-09-11T13:49:28.362Z,4.53
2022-09-11T13:52:03.667Z,4.42
2022-09-11T13:54:39.337Z,3.42
2022-09-11T13:57:21.550Z,3.95
2022-09-11T13:59:58.431Z,3.80
2022-09-11T14:02:51.614Z,3.58
2022-09-11T14:05:32.889Z,3.20
2022-09-11T14:08:08.994Z,2.90
2022-09-11T14:10:48.183Z,3.05
2022-09-11T14:13:27.972Z,2.95
2022-09-11T14:16:05.690Z,2.67
2022-09-11T14:18:44.142Z,2.95
2022-09-11T14:21:23.575Z,2.72
2022-09-11T14:24:10.170Z,2.75
2022-09-11T14:26:44.860Z,2.25
2022-09-11T14:29:30.940Z,2.85
2022-09-11T14:32:31.541Z,2.55
2022-09-11T14:35:07.703Z,2.58
2022-09-11T14:37:45.846Z,2.65
2022-09-11T14:40:21.232Z,2.83
2022-09-11T14:42:54.571Z,3.95
2022-09-11T14:45:28.195Z,2.77
2022-09-11T14:48:02.658Z,2.70
2022-09-11T14:50:36.007Z,2.60
2022-09-11T14:53:11.670Z,2.75
2022-09-11T14:55:44.994Z,2.45
2022-09-11T14:58:18.637Z,2.70
2022-09-11T15:00:51.702Z,4.17
2022-09-11T15:03:26.272Z,3.12
2022-09-11T15:06:00.863Z,3.02
2022-09-11T15:08:34.200Z,2.95
2022-09-11T15:11:07.960Z,2.80
2022-09-11T15:13:57.854Z,3.12
2022-09-11T15:16:16.573Z,2.65
2022-09-11T15:18:50.047Z,3.55
2022-09-11T15:21:23.179Z,2.58
2022-09-11T15:23:56.329Z,2.47
2022-09-11T15:26:29.549Z,4.17
2022-09-11T15:29:03.148Z,2.90
2022-09-11T15:31:36.721Z,2.45
2022-09-11T15:34:10.754Z,2.50
2022-09-11T15:36:44.927Z,3.62
2022-09-11T15:39:20.072Z,2.52
2022-09-11T15:41:53.537Z,2.58
2022-09-11T15:44:29.530Z,3.00
2022-09-11T15:47:03.537Z,2.83
2022-09-11T15:49:41.564Z,2.85
2022-09-11T15:52:15.485Z,2.80
2022-09-11T15:54:50.693Z,2.65
2022-09-11T15:57:25.707Z,2.83
2022-09-11T15:59:59.074Z,2.77
2022-09-11T16:02:34.009Z,2.37
2022-09-11T16:05:08.412Z,2.90
2022-09-11T16:07:41.902Z,3.05
2022-09-11T16:10:15.050Z,2.80
2022-09-11T16:12:48.405Z,4.35
2022-09-11T16:15:22.335Z,3.62
2022-09-11T16:17:55.806Z,4.35
2022-09-11T16:20:28.977Z,4.22
2022-09-11T16:23:03.860Z,3.50
2022-09-11T16:25:42.546Z,3.37
2022-09-11T16:28:22.128Z,3.22
2022-09-11T16:30:57.256Z,5.00
2022-09-11T16:33:31.565Z,4.50
2022-09-11T16:36:08.899Z,3.72
2022-09-11T16:38:43.280Z,4.40
2022-09-11T16:41:22.815Z,3.85
2022-09-11T16:43:56.403Z,4.85
2022-09-11T16:46:31.253Z,3.85
2022-09-11T16:49:06.545Z,4.50
2022-09-11T16:51:39.983Z,3.37
2022-09-11T16:54:13.541Z,4.60
2022-09-11T16:56:46.453Z,5.50
2022-09-11T16:59:22.056Z,3.65
2022-09-11T17:01:57.221Z,4.40
2022-09-11T17:04:36.221Z,4.00
2022-09-11T17:07:09.484Z,4.72
2022-09-11T17:09:43.631Z,4.28
2022-09-11T17:12:17.772Z,4.40
2022-09-11T17:14:52.830Z,4.60
2022-09-11T17:17:26.249Z,5.55
2022-09-11T17:19:59.536Z,4.47
2022-09-11T17:22:34.500Z,4.42
2022-09-11T17:25:09.228Z,4.30
2022-09-11T17:27:42.708Z,4.03
2022-09-11T17:30:17.608Z,4.70
2022-09-11T17:32:51.102Z,4.12
2022-09-11T17:35:24.330Z,4.53
2022-09-11T17:37:57.504Z,4.90
2022-09-11T17:40:36.090Z,3.90
2022-09-11T17:43:11.010Z,4.42
2022-09-11T17:45:44.448Z,4.40
2022-09-11T17:48:18.236Z,4.20
2022-09-11T17:50:53.344Z,5.10
2022-09-11T17:53:27.070Z,6.90
2022-09-11T17:56:05.394Z,5.75
2022-09-11T17:58:39.322Z,4.37
2022-09-11T18:01:16.656Z,5.33
2022-09-11T18:03:52.704Z,5.62
2022-09-11T18:06:29.304Z,5.72
2022-09-11T18:09:06.213Z,4.70
2022-09-11T18:11:39.635Z,5.15
2022-09-11T18:14:13.893Z,5.72
2022-09-11T18:16:49.515Z,5.22
2022-09-11T18:19:26.178Z,5.45
2022-09-11T18:21:59.871Z,5.25
2022-09-11T18:24:33.258Z,5.55
2022-09-11T18:27:07.054Z,5.40
2022-09-11T18:29:40.768Z,5.80
2022-09-11T18:32:14.168Z,5.25
2022-09-11T18:34:48.269Z,5.30
2022-09-11T18:37:22.192Z,5.00
2022-09-11T18:39:55.352Z,6.28
2022-09-11T18:42:28.511Z,7.12
2022-09-11T18:45:01.820Z,6.05
2022-09-11T18:47:35.440Z,5.00
2022-09-11T18:50:10.762Z,6.42
2022-09-11T18:52:46.352Z,5.28
2022-09-11T18:55:22.920Z,6.08
2022-09-11T18:57:56.311Z,6.03
2022-09-11T19:00:29.982Z,5.20
2022-09-11T19:03:03.170Z,5.85
2022-09-11T19:05:36.361Z,5.50
2022-09-11T19:08:10.417Z,5.75
2022-09-11T19:10:44.231Z,5.75
2022-09-11T19:13:17.675Z,5.67
2022-09-11T19:16:00.237Z,6.12
2022-09-11T19:18:33.560Z,5.28
2022-09-11T19:21:10.235Z,5.58
2022-09-11T19:23:45.325Z,6.12
2022-09-11T19:26:20.845Z,6.83
2022-09-11T19:28:55.924Z,5.33
2022-09-11T19:31:30.687Z,8.60
2022-09-11T19:34:04.362Z,6.87
2022-09-11T19:36:38.824Z,6.03
2022-09-11T19:39:13.103Z,5.42
2022-09-11T19:41:46.561Z,6.12
2022-09-11T19:44:21.282Z,5.53
2022-09-11T19:46:56.413Z,5.97
2022-09-11T19:49:30.233Z,4.62
2022-09-11T19:52:06.007Z,5.20
2022-09-11T19:54:39.766Z,5.75
2022-09-11T19:57:13.312Z,5.00
2022-09-11T19:59:49.385Z,6.12
2022-09-11T20:02:23.248Z,6.17
2022-09-11T20:04:56.445Z,6.58
2022-09-11T20:07:30.098Z,6.33
2022-09-11T20:10:03.804Z,6.33
2022-09-11T20:12:37.385Z,5.25
2022-09-11T20:15:13.183Z,6.62
2022-09-11T20:17:46.374Z,7.15
2022-09-11T20:20:21.057Z,7.37
2022-09-11T20:22:56.134Z,6.97
2022-09-11T20:25:29.745Z,6.42
2022-09-11T20:28:03.914Z,7.25
2022-09-11T20:30:37.223Z,7.83
2022-09-11T20:33:11.850Z,6.95
2022-09-11T20:35:46.332Z,7.03
2022-09-11T20:38:19.900Z,6.65
2022-09-11T20:40:53.557Z,7.35
2022-09-11T20:43:27.051Z,7.53
2022-09-11T20:46:00.583Z,6.80
2022-09-11T20:48:34.352Z,6.25
2022-09-11T20:51:09.520Z,7.30
2022-09-11T20:53:45.295Z,7.12
2022-09-11T20:56:22.478Z,7.83
2022-09-11T20:58:55.912Z,7.70
2022-09-11T21:01:32.476Z,8.53
2022-09-11T21:04:07.002Z,8.53
2022-09-11T21:06:40.218Z,8.78
2022-09-11T21:09:14.599Z,8.08
2022-09-11T21:11:48.774Z,9.20
2022-09-11T21:14:22.073Z,8.85
2022-09-11T21:16:56.711Z,9.25
2022-09-11T21:19:30.176Z,7.92
2022-09-11T21:22:03.368Z,9.55
2022-09-11T21:24:37.937Z,9.48
2022-09-11T21:27:11.281Z,7.80
2022-09-11T21:29:45.264Z,9.20
2022-09-11T21:32:18.846Z,8.30
2022-09-11T21:34:52.064Z,8.43
2022-09-11T21:37:25.868Z,7.90
2022-09-11T21:39:59.371Z,8.85
2022-09-11T21:42:36.341Z,9.73
2022-09-11T21:45:12.028Z,10.70
2022-09-11T21:47:45.984Z,8.93
2022-09-11T21:50:20.081Z,9.95
2022-09-11T21:52:53.310Z,9.33
2022-09-11T21:55:28.184Z,8.78
2022-09-11T21:58:02.154Z,8.95
2022-09-11T22:00:42.627Z,10.15
2022-09-11T22:03:13.619Z,9.75
2022-09-11T22:05:51.516Z,9.55
2022-09-11T22:10:57.093Z,9.58
2022-09-11T22:13:31.060Z,11.57
2022-09-11T22:16:07.142Z,9.53
2022-09-11T22:18:41.807Z,9.28
2022-09-11T22:21:15.624Z,8.48
2022-09-11T22:23:49.780Z,9.18
2022-09-11T22:26:24.379Z,9.73
2022-09-11T22:28:58.669Z,10.25
2022-09-11T22:31:32.618Z,9.53
2022-09-11T22:34:06.433Z,10.50
2022-09-11T22:36:40.052Z,9.80
2022-09-11T22:39:13.304Z,8.60
2022-09-11T22:41:46.624Z,9.28
2022-09-11T22:44:21.005Z,8.68
2022-09-11T22:46:54.315Z,9.08
2022-09-11T22:49:28.282Z,9.75
2022-09-11T22:52:01.504Z,9.45
2022-09-11T22:54:35.647Z,9.98
2022-09-11T22:57:09.235Z,8.90
2022-09-11T22:59:42.861Z,9.90
2022-09-11T23:02:16.643Z,10.28
2022-09-11T23:05:08.964Z,8.68
2022-09-11T23:07:42.400Z,7.78
2022-09-11T23:10:15.721Z,8.55
2022-09-11T23:12:48.948Z,8.65
2022-09-11T23:15:23.039Z,9.23
2022-09-11T23:17:56.404Z,9.10
2022-09-11T23:20:31.642Z,7.65
2022-09-11T23:23:05.904Z,8.05
2022-09-11T23:25:42.282Z,7.08
2022-09-11T23:28:16.023Z,8.60
2022-09-11T23:30:49.298Z,8.08
2022-09-11T23:33:22.881Z,8.18
2022-09-11T23:35:56.772Z,8.28
2022-09-11T23:38:29.949Z,7.72
2022-09-11T23:41:03.856Z,8.98
2022-09-11T23:43:37.707Z,6.58
2022-09-11T23:46:11.759Z,6.70
2022-09-11T23:48:45.531Z,6.67
2022-09-11T23:51:19.466Z,6.00
2022-09-11T23:53:53.155Z,5.90
2022-09-11T23:56:27.293Z,6.58
2022-09-11T23:59:00.664Z,5.40
